createdAt,value
2023-03-04T00:00:49.045Z,29.45
2023-03-04T00:03:37.451Z,29.70
2023-03-04T00:06:26.357Z,28.93
2023-03-04T00:09:14.797Z,25.85
2023-03-04T00:12:05.035Z,24.40
2023-03-04T00:14:53.465Z,23.33
2023-03-04T00:17:41.969Z,22.30
2023-03-04T00:20:30.414Z,26.05
2023-03-04T00:23:19.324Z,22.48
2023-03-04T00:26:08.028Z,19.10
2023-03-04T00:28:57.952Z,18.13
2023-03-04T00:31:46.500Z,15.57
2023-03-04T00:34:35.043Z,16.95
2023-03-04T00:37:23.609Z,17.55
2023-03-04T00:40:13.257Z,17.15
2023-03-04T00:43:01.730Z,18.23
2023-03-04T00:45:51.605Z,16.15
2023-03-04T00:48:40.669Z,19.13
2023-03-04T00:51:29.231Z,16.92
2023-03-04T00:54:17.741Z,16.48
2023-03-04T00:57:06.338Z,16.80
2023-03-04T00:59:54.795Z,21.58
2023-03-04T01:02:44.716Z,20.40
2023-03-04T01:05:34.388Z,19.55
2023-03-04T01:08:22.872Z,18.13
2023-03-04T01:11:11.525Z,17.98
2023-03-04T01:14:00.038Z,20.08
2023-03-04T01:16:48.655Z,19.67
2023-03-04T01:19:38.477Z,21.23
2023-03-04T01:22:26.950Z,21.23
2023-03-04T01:25:15.540Z,18.90
2023-03-04T01:28:04.350Z,17.33
2023-03-04T01:30:52.887Z,17.98
2023-03-04T01:33:41.359Z,17.55
2023-03-04T01:36:31.217Z,18.40
2023-03-04T01:39:19.685Z,19.88
2023-03-04T01:42:14.731Z,17.40
2023-03-04T01:45:03.980Z,16.50
2023-03-04T01:47:53.529Z,20.80
2023-03-04T01:50:42.087Z,19.63
2023-03-04T01:53:33.712Z,15.57
2023-03-04T01:56:26.347Z,15.43
2023-03-04T01:59:17.054Z,16.48
2023-03-04T02:02:05.718Z,18.45
2023-03-04T02:04:54.147Z,15.70
2023-03-04T02:07:43.022Z,15.63
2023-03-04T02:10:33.512Z,16.92
2023-03-04T02:13:22.105Z,17.93
2023-03-04T02:16:10.749Z,16.50
2023-03-04T02:19:00.165Z,16.40
2023-03-04T02:21:48.654Z,15.00
2023-03-04T02:24:42.611Z,18.13
2023-03-04T02:27:32.421Z,19.20
2023-03-04T02:30:25.403Z,17.67
2023-03-04T02:33:18.649Z,16.02
2023-03-04T02:36:08.057Z,17.40
2023-03-04T02:38:57.308Z,16.43
2023-03-04T02:41:45.773Z,18.10
2023-03-04T02:44:37.179Z,20.50
2023-03-04T02:47:25.670Z,17.63
2023-03-04T02:50:14.184Z,20.80
2023-03-04T02:53:02.669Z,19.00
2023-03-04T02:55:51.105Z,20.13
2023-03-04T02:58:40.594Z,14.60
2023-03-04T03:01:31.391Z,16.97
2023-03-04T03:04:21.204Z,18.13
2023-03-04T03:07:10.214Z,15.45
2023-03-04T03:09:58.671Z,15.60
2023-03-04T03:12:47.571Z,20.92
2023-03-04T03:15:36.498Z,17.33
2023-03-04T03:18:26.466Z,21.73
2023-03-04T03:21:14.987Z,20.27
2023-03-04T03:24:03.631Z,17.27
2023-03-04T03:26:52.101Z,15.65
2023-03-04T03:29:40.615Z,17.23
2023-03-04T03:32:29.116Z,26.20
2023-03-04T03:35:19.131Z,24.40
2023-03-04T03:38:07.587Z,17.77
2023-03-04T03:40:56.064Z,22.25
2023-03-04T03:43:44.465Z,21.27
2023-03-04T03:46:33.065Z,22.83
2023-03-04T03:49:21.704Z,20.45
2023-03-04T03:52:11.510Z,20.30
2023-03-04T03:55:02.049Z,18.05
2023-03-04T03:57:50.665Z,22.38
2023-03-04T04:00:39.079Z,20.38
2023-03-04T04:03:27.614Z,18.77
2023-03-04T04:06:16.067Z,16.73
2023-03-04T04:09:05.991Z,18.55
2023-03-04T04:11:54.470Z,20.65
2023-03-04T04:14:43.179Z,21.55
2023-03-04T04:17:31.617Z,19.77
2023-03-04T04:20:20.167Z,20.47
2023-03-04T04:23:08.536Z,16.98
2023-03-04T04:25:58.892Z,18.35
2023-03-04T04:28:47.380Z,17.48
2023-03-04T04:31:36.068Z,20.88
2023-03-04T04:34:24.524Z,22.08
2023-03-04T04:37:13.133Z,20.48
2023-03-04T04:40:01.603Z,25.23
2023-03-04T04:42:51.543Z,20.13
2023-03-04T04:45:40.049Z,19.58
2023-03-04T04:48:28.546Z,22.75
2023-03-04T04:51:17.267Z,22.98
2023-03-04T04:54:07.296Z,19.30
2023-03-04T04:56:55.771Z,19.88
2023-03-04T04:59:45.556Z,21.17
2023-03-04T05:02:36.338Z,18.27
2023-03-04T05:05:24.844Z,19.75
2023-03-04T05:08:13.295Z,21.92
2023-03-04T05:11:02.636Z,23.08
2023-03-04T05:13:51.563Z,25.95
2023-03-04T05:16:41.447Z,21.42
2023-03-04T05:19:29.967Z,24.15
2023-03-04T05:22:18.426Z,21.92
2023-03-04T05:25:07.395Z,24.30
2023-03-04T05:27:56.015Z,21.35
2023-03-04T05:30:46.310Z,20.52
2023-03-04T05:33:36.315Z,19.13
2023-03-04T05:36:24.822Z,18.80
2023-03-04T05:39:13.288Z,19.20
2023-03-04T05:42:01.731Z,19.20
2023-03-04T05:44:50.244Z,17.80
2023-03-04T05:47:38.772Z,17.17
2023-03-04T05:50:28.705Z,15.23
2023-03-04T05:53:17.291Z,20.25
2023-03-04T05:56:09.330Z,17.08
2023-03-04T05:58:59.184Z,20.30
2023-03-04T06:01:47.935Z,21.42
2023-03-04T06:04:36.509Z,25.02
2023-03-04T06:07:26.460Z,24.77
2023-03-04T06:10:17.272Z,22.07
2023-03-04T06:13:05.796Z,26.45
2023-03-04T06:15:58.010Z,29.15
2023-03-04T06:18:46.526Z,24.95
2023-03-04T06:21:35.010Z,25.02
2023-03-04T06:24:25.222Z,22.33
2023-03-04T06:27:13.905Z,25.10
2023-03-04T06:30:02.816Z,25.33
2023-03-04T06:32:51.636Z,23.10
2023-03-04T06:35:40.197Z,21.88
2023-03-04T06:38:28.738Z,20.70
2023-03-04T06:41:18.595Z,24.40
2023-03-04T06:44:07.535Z,21.00
2023-03-04T06:46:56.121Z,26.77
2023-03-04T06:49:44.572Z,27.08
2023-03-04T06:52:33.078Z,21.35
2023-03-04T06:55:21.844Z,26.02
2023-03-04T06:58:11.664Z,25.52
2023-03-04T07:01:11.930Z,23.65
2023-03-04T07:04:00.619Z,25.23
2023-03-04T07:06:49.117Z,21.80
2023-03-04T07:09:37.617Z,27.48
2023-03-04T07:12:26.203Z,24.33
2023-03-04T07:15:16.220Z,23.70
2023-03-04T07:18:04.957Z,28.02
2023-03-04T07:20:53.892Z,24.80
2023-03-04T07:23:43.251Z,24.67
2023-03-04T07:26:31.820Z,24.58
2023-03-04T07:29:20.346Z,26.35
2023-03-04T07:32:11.274Z,21.23
2023-03-04T07:34:59.848Z,23.67
2023-03-04T07:37:48.342Z,25.17
2023-03-04T07:40:36.913Z,71.53
2023-03-04T07:43:25.413Z,42.88
2023-03-04T07:46:14.418Z,51.53
2023-03-04T07:49:04.640Z,24.92
2023-03-04T07:51:53.073Z,25.87
2023-03-04T07:54:41.707Z,29.42
2023-03-04T07:57:30.175Z,25.27
2023-03-04T08:00:19.663Z,21.85
2023-03-04T08:03:08.084Z,21.77
2023-03-04T08:05:57.871Z,27.80
2023-03-04T08:08:46.677Z,23.80
2023-03-04T08:11:36.855Z,22.80
2023-03-04T08:14:25.326Z,27.02
2023-03-04T08:17:14.779Z,22.20
2023-03-04T08:20:03.280Z,21.15
2023-03-04T08:22:53.173Z,25.57
2023-03-04T08:25:42.611Z,22.27
2023-03-04T08:28:31.136Z,24.88
2023-03-04T08:31:20.180Z,19.40
2023-03-04T08:34:10.498Z,19.58
2023-03-04T08:36:59.112Z,18.27
2023-03-04T08:39:49.022Z,23.30
2023-03-04T08:42:37.546Z,24.90
2023-03-04T08:45:26.133Z,24.77
2023-03-04T08:48:14.827Z,24.35
2023-03-04T08:51:08.043Z,22.45
2023-03-04T08:53:56.546Z,17.73
2023-03-04T08:56:46.527Z,15.73
2023-03-04T08:59:37.787Z,18.05
2023-03-04T09:02:26.701Z,20.25
2023-03-04T09:05:15.256Z,19.83
2023-03-04T09:08:03.729Z,19.17
2023-03-04T09:10:54.491Z,27.38
2023-03-04T09:13:44.626Z,22.80
2023-03-04T09:16:33.381Z,16.20
2023-03-04T09:19:21.935Z,15.52
2023-03-04T09:22:10.440Z,20.50
2023-03-04T09:24:59.027Z,19.73
2023-03-04T09:27:47.589Z,13.40
2023-03-04T09:30:37.676Z,15.60
2023-03-04T09:33:26.150Z,15.02
2023-03-04T09:36:16.559Z,17.80
2023-03-04T09:39:05.737Z,18.17
2023-03-04T09:41:58.364Z,24.30
2023-03-04T09:44:48.140Z,15.32
2023-03-04T09:47:39.026Z,17.20
2023-03-04T09:50:28.145Z,16.80
2023-03-04T09:53:20.818Z,19.30
2023-03-04T09:56:09.504Z,14.32
2023-03-04T09:59:02.983Z,16.88
2023-03-04T10:01:53.425Z,13.65
2023-03-04T10:04:49.586Z,15.90
2023-03-04T10:07:41.474Z,22.75
2023-03-04T10:10:35.162Z,17.27
2023-03-04T10:13:32.679Z,17.13
2023-03-04T10:16:24.498Z,19.17
2023-03-04T10:19:25.183Z,17.07
2023-03-04T10:22:24.584Z,19.95
2023-03-04T10:25:21.762Z,20.90
2023-03-04T10:28:16.845Z,14.70
2023-03-04T10:31:13.640Z,19.13
2023-03-04T10:34:03.777Z,22.67
2023-03-04T10:36:59.365Z,18.23
2023-03-04T10:39:51.753Z,15.23
2023-03-04T10:42:40.466Z,15.52
2023-03-04T10:45:35.326Z,12.23
2023-03-04T10:48:26.307Z,14.73
2023-03-04T10:51:18.811Z,17.75
2023-03-04T10:54:09.778Z,13.95
2023-03-04T10:57:01.602Z,18.63
2023-03-04T10:59:53.575Z,17.75
2023-03-04T11:02:42.465Z,15.23
2023-03-04T11:05:34.136Z,14.63
2023-03-04T11:08:24.069Z,15.35
2023-03-04T11:11:26.299Z,19.40
2023-03-04T11:14:23.197Z,18.95
2023-03-04T11:17:25.095Z,14.83
2023-03-04T11:20:16.253Z,15.45
2023-03-04T11:23:06.489Z,17.45
2023-03-04T11:25:58.196Z,15.90
2023-03-04T11:28:49.076Z,14.17
2023-03-04T11:31:41.445Z,17.83
2023-03-04T11:34:33.850Z,16.88
2023-03-04T11:37:24.975Z,14.10
2023-03-04T11:40:15.892Z,12.98
2023-03-04T11:43:08.321Z,16.30
2023-03-04T11:46:21.602Z,15.07
2023-03-04T11:49:18.779Z,15.68
2023-03-04T11:52:15.525Z,18.95
2023-03-04T11:55:30.683Z,17.33
2023-03-04T11:58:42.750Z,18.15
2023-03-04T12:01:43.167Z,12.47
2023-03-04T12:05:11.391Z,18.92
2023-03-04T12:08:33.108Z,17.70
2023-03-04T12:11:39.565Z,15.85
2023-03-04T12:14:34.611Z,15.82
2023-03-04T12:17:39.440Z,19.23
2023-03-04T12:20:54.249Z,19.35
2023-03-04T12:24:15.094Z,11.43
2023-03-04T12:27:06.112Z,18.23
2023-03-04T12:29:58.409Z,12.23
2023-03-04T12:32:58.352Z,16.65
2023-03-04T12:35:59.018Z,14.60
2023-03-04T12:39:10.923Z,18.92
2023-03-04T12:42:10.397Z,15.50
2023-03-04T12:45:15.066Z,13.57
2023-03-04T12:48:07.937Z,11.30
2023-03-04T12:51:07.725Z,13.07
2023-03-04T12:54:06.990Z,10.23
2023-03-04T12:56:57.662Z,15.55
2023-03-04T12:59:53.199Z,15.10
2023-03-04T13:02:56.631Z,14.45
2023-03-04T13:06:10.465Z,15.88
2023-03-04T13:09:06.335Z,13.60
2023-03-04T13:12:05.432Z,10.25
2023-03-04T13:15:29.689Z,13.88
2023-03-04T13:18:36.241Z,12.77
2023-03-04T13:21:27.807Z,12.30
2023-03-04T13:24:53.478Z,14.55
2023-03-04T13:27:50.132Z,17.52
2023-03-04T13:31:06.813Z,16.80
2023-03-04T13:34:04.643Z,18.80
2023-03-04T13:36:59.273Z,10.55
2023-03-04T13:40:07.791Z,15.35
2023-03-04T13:42:56.273Z,16.50
2023-03-04T13:45:44.809Z,9.77
2023-03-04T13:48:37.291Z,15.07
2023-03-04T13:51:30.152Z,14.57
2023-03-04T13:54:26.728Z,18.60
2023-03-04T13:57:20.778Z,17.23
2023-03-04T14:00:14.779Z,18.17
2023-03-04T14:03:15.592Z,19.30
2023-03-04T14:06:19.016Z,19.35
2023-03-04T14:09:14.990Z,16.80
2023-03-04T14:12:15.457Z,13.85
2023-03-04T14:15:08.078Z,13.23
2023-03-04T14:17:58.312Z,19.35
2023-03-04T14:20:50.783Z,18.05
2023-03-04T14:23:39.209Z,21.48
2023-03-04T14:26:27.737Z,19.58
2023-03-04T14:29:25.781Z,22.42
2023-03-04T14:32:14.772Z,16.60
2023-03-04T14:35:05.769Z,16.40
2023-03-04T14:37:59.219Z,20.15
2023-03-04T14:40:53.259Z,19.45
2023-03-04T14:43:43.175Z,19.27
2023-03-04T14:46:36.543Z,20.27
2023-03-04T14:49:25.343Z,22.80
2023-03-04T14:52:28.917Z,21.30
2023-03-04T14:55:23.892Z,22.63
2023-03-04T14:58:23.563Z,17.75
2023-03-04T15:01:18.403Z,15.63
2023-03-04T15:04:11.181Z,26.48
2023-03-04T15:06:59.737Z,19.30
2023-03-04T15:09:53.206Z,18.73
2023-03-04T15:12:43.593Z,22.23
2023-03-04T15:15:39.852Z,20.73
2023-03-04T15:18:30.179Z,18.27
2023-03-04T15:21:33.708Z,14.57
2023-03-04T15:24:22.111Z,19.95
2023-03-04T15:27:13.153Z,17.95
2023-03-04T15:30:02.308Z,19.33
2023-03-04T15:32:50.980Z,14.93
2023-03-04T15:35:40.522Z,22.15
2023-03-04T15:38:31.058Z,17.15
2023-03-04T15:41:23.828Z,17.08
2023-03-04T15:44:12.889Z,17.63
2023-03-04T15:47:01.359Z,18.92
2023-03-04T15:49:49.840Z,22.20
2023-03-04T15:52:39.720Z,15.60
2023-03-04T15:55:31.549Z,14.23
2023-03-04T15:58:20.556Z,15.18
2023-03-04T16:01:10.674Z,12.88
2023-03-04T16:03:59.395Z,16.95
2023-03-04T16:06:49.739Z,13.57
2023-03-04T16:09:38.266Z,13.35
2023-03-04T16:12:28.976Z,16.80
2023-03-04T16:15:19.831Z,16.37
2023-03-04T16:18:09.220Z,15.48
2023-03-04T16:20:58.044Z,13.18
2023-03-04T16:23:48.207Z,21.70
2023-03-04T16:26:36.615Z,15.98
2023-03-04T16:29:26.603Z,14.38
2023-03-04T16:32:15.434Z,19.60
2023-03-04T16:35:04.210Z,17.60
2023-03-04T16:37:53.396Z,20.25
2023-03-04T16:40:42.119Z,16.13
2023-03-04T16:43:30.882Z,20.77
2023-03-04T16:46:21.090Z,19.63
2023-03-04T16:49:09.866Z,16.90
2023-03-04T16:51:58.761Z,17.13
2023-03-04T16:54:47.487Z,16.70
2023-03-04T16:57:36.198Z,16.38
2023-03-04T17:00:25.460Z,15.68
2023-03-04T17:03:15.593Z,14.27
2023-03-04T17:06:04.360Z,15.07
2023-03-04T17:08:53.188Z,18.00
2023-03-04T17:11:42.070Z,23.67
2023-03-04T17:14:30.578Z,22.58
2023-03-04T17:17:19.055Z,18.83
2023-03-04T17:20:10.984Z,16.70
2023-03-04T17:22:59.423Z,23.33
2023-03-04T17:25:55.580Z,22.10
2023-03-04T17:28:44.169Z,19.73
2023-03-04T17:31:32.703Z,17.45
2023-03-04T17:34:21.256Z,19.73
2023-03-04T17:37:11.069Z,18.60
2023-03-04T17:39:59.500Z,17.25
2023-03-04T17:42:48.001Z,20.73
2023-03-04T17:45:36.633Z,22.85
2023-03-04T17:48:25.287Z,21.23
2023-03-04T17:51:13.725Z,21.17
2023-03-04T17:54:05.532Z,20.20
2023-03-04T17:56:54.073Z,22.63
2023-03-04T17:59:42.852Z,20.73
2023-03-04T18:02:31.342Z,19.20
2023-03-04T18:05:19.922Z,20.55
2023-03-04T18:08:08.729Z,21.80
2023-03-04T18:10:58.597Z,24.13
2023-03-04T18:13:47.130Z,25.45
2023-03-04T18:16:35.839Z,22.30
2023-03-04T18:19:24.458Z,24.63
2023-03-04T18:22:13.356Z,24.65
2023-03-04T18:25:02.235Z,27.80
2023-03-04T18:27:52.676Z,30.05
2023-03-04T18:30:41.393Z,22.50
2023-03-04T18:33:30.397Z,22.40
2023-03-04T18:36:19.126Z,27.33
2023-03-04T18:39:07.950Z,34.47
2023-03-04T18:41:56.685Z,25.38
2023-03-04T18:44:46.834Z,20.97
2023-03-04T18:47:36.304Z,29.33
2023-03-04T18:50:25.130Z,21.50
2023-03-04T18:53:13.840Z,33.78
2023-03-04T18:56:05.590Z,34.13
2023-03-04T18:58:54.343Z,28.92
2023-03-04T19:01:44.567Z,26.43
2023-03-04T19:04:33.487Z,32.50
2023-03-04T19:07:23.324Z,33.85
2023-03-04T19:10:12.736Z,40.25
2023-03-04T19:13:02.239Z,40.90
2023-03-04T19:15:51.361Z,44.17
2023-03-04T19:18:41.215Z,39.97
2023-03-04T19:21:29.757Z,46.67
2023-03-04T19:24:18.337Z,46.75
2023-03-04T19:27:06.803Z,42.97
2023-03-04T19:29:55.254Z,41.83
2023-03-04T19:32:43.731Z,39.53
2023-03-04T19:35:33.738Z,39.33
2023-03-04T19:38:22.415Z,36.30
2023-03-04T19:41:12.218Z,38.97
2023-03-04T19:44:00.680Z,39.67
2023-03-04T19:46:49.151Z,40.72
2023-03-04T19:49:37.656Z,36.25
2023-03-04T19:52:27.609Z,50.03
2023-03-04T19:55:16.007Z,49.13
2023-03-04T19:58:04.687Z,47.22
2023-03-04T20:00:54.917Z,33.75
2023-03-04T20:03:43.832Z,28.63
2023-03-04T20:06:32.876Z,31.48
2023-03-04T20:09:23.167Z,30.92
2023-03-04T20:12:12.964Z,31.15
2023-03-04T20:15:01.771Z,30.38
2023-03-04T20:17:50.511Z,32.80
2023-03-04T20:20:39.706Z,38.83
2023-03-04T20:23:29.359Z,29.58
2023-03-04T20:26:19.600Z,31.67
2023-03-04T20:29:08.351Z,30.40
2023-03-04T20:31:58.026Z,31.33
2023-03-04T20:34:47.667Z,37.92
2023-03-04T20:37:36.415Z,32.78
2023-03-04T20:40:25.183Z,29.33
2023-03-04T20:43:15.275Z,30.30
2023-03-04T20:46:22.642Z,28.70
2023-03-04T20:49:12.376Z,29.73
2023-03-04T20:52:06.143Z,25.90
2023-03-04T20:54:54.873Z,30.48
2023-03-04T20:57:43.610Z,25.52
2023-03-04T21:00:33.731Z,27.92
2023-03-04T21:03:22.462Z,30.45
2023-03-04T21:06:13.119Z,32.63
2023-03-04T21:09:02.633Z,27.52
2023-03-04T21:11:51.902Z,29.87
2023-03-04T21:14:41.507Z,26.80
2023-03-04T21:17:31.757Z,31.08
2023-03-04T21:20:20.547Z,31.15
2023-03-04T21:23:09.274Z,24.85
2023-03-04T21:25:58.029Z,30.38
2023-03-04T21:28:47.098Z,28.77
2023-03-04T21:31:38.940Z,33.80
2023-03-04T21:34:31.934Z,38.58
2023-03-04T21:37:20.695Z,29.55
2023-03-04T21:40:09.987Z,33.22
2023-03-04T21:42:58.439Z,33.60
2023-03-04T21:45:47.437Z,37.13
2023-03-04T21:48:35.969Z,33.22
2023-03-04T21:51:26.067Z,31.58
2023-03-04T21:54:15.479Z,36.08
2023-03-04T21:57:04.212Z,35.23
2023-03-04T21:59:52.908Z,32.72
2023-03-04T22:02:41.691Z,34.63
2023-03-04T22:05:30.260Z,29.85
2023-03-04T22:08:21.595Z,32.25
2023-03-04T22:11:13.530Z,29.40
2023-03-04T22:14:03.501Z,28.38
2023-03-04T22:16:55.823Z,26.45
2023-03-04T22:19:44.935Z,29.83
2023-03-04T22:22:33.676Z,27.23
2023-03-04T22:25:23.569Z,27.67
2023-03-04T22:28:12.368Z,28.48
2023-03-04T22:31:01.941Z,28.52
2023-03-04T22:33:50.417Z,26.87
2023-03-04T22:36:40.925Z,27.00
2023-03-04T22:39:29.462Z,27.73
2023-03-04T22:42:19.311Z,23.42
2023-03-04T22:45:08.998Z,22.63
2023-03-04T22:47:57.857Z,24.40
2023-03-04T22:50:46.610Z,31.70
2023-03-04T22:53:35.450Z,29.20
2023-03-04T22:56:24.166Z,25.40
2023-03-04T22:59:14.658Z,25.15
2023-03-04T23:02:03.659Z,29.05
2023-03-04T23:04:52.439Z,27.17
2023-03-04T23:07:41.398Z,25.55
2023-03-04T23:10:30.180Z,25.88
2023-03-04T23:13:18.902Z,24.73
2023-03-04T23:16:10.195Z,22.40
2023-03-04T23:18:59.797Z,24.27
2023-03-04T23:21:48.690Z,23.87
2023-03-04T23:24:37.441Z,21.42
2023-03-04T23:27:26.484Z,22.90
2023-03-04T23:30:16.850Z,23.65
2023-03-04T23:33:07.032Z,21.75
2023-03-04T23:35:55.990Z,21.03
2023-03-04T23:38:46.361Z,24.57
2023-03-04T23:41:35.576Z,24.23
2023-03-04T23:44:24.097Z,23.73
2023-03-04T23:47:12.688Z,20.38
2023-03-04T23:50:03.895Z,20.15
2023-03-04T23:52:52.394Z,20.10
2023-03-04T23:55:43.543Z,21.95
2023-03-04T23:58:32.071Z,20.42
